createdAt,value
2023-04-10T00:00:04.630Z,84
2023-04-10T00:01:05.642Z,82
2023-04-10T00:02:06.760Z,87
2023-04-10T00:03:07.881Z,84
2023-04-10T00:04:08.712Z,85
2023-04-10T00:05:09.702Z,89
2023-04-10T00:06:10.607Z,86
2023-04-10T00:07:11.685Z,90
2023-04-10T00:08:12.678Z,96
2023-04-10T00:09:13.597Z,92
2023-04-10T00:10:14.615Z,90
2023-04-10T00:11:15.622Z,93
2023-04-10T00:12:16.658Z,99
2023-04-10T00:13:17.563Z,102
2023-04-10T00:14:18.641Z,99
2023-04-10T00:15:19.662Z,96
2023-04-10T00:16:20.614Z,95
2023-04-10T00:17:21.653Z,97
2023-04-10T00:18:22.579Z,93
2023-04-10T00:19:23.613Z,90
2023-04-10T00:20:24.619Z,88
2023-04-10T00:21:25.678Z,86
2023-04-10T00:22:26.721Z,91
2023-04-10T00:23:27.665Z,85
2023-04-10T00:24:28.600Z,83
2023-04-10T00:25:29.599Z,85
2023-04-10T00:26:30.623Z,88
2023-04-10T00:27:31.634Z,88
2023-04-10T00:28:32.643Z,89
2023-04-10T00:29:33.681Z,89
2023-04-10T00:30:34.638Z,84
2023-04-10T00:31:35.676Z,82
2023-04-10T00:32:36.782Z,84
2023-04-10T00:33:37.647Z,86
2023-04-10T00:34:38.722Z,89
2023-04-10T00:35:39.677Z,92
2023-04-10T00:36:41.213Z,89
2023-04-10T00:37:42.575Z,95
2023-04-10T00:38:43.585Z,99
2023-04-10T00:39:44.582Z,102
2023-04-10T00:40:45.580Z,103
2023-04-10T00:41:46.625Z,602
2023-04-10T00:42:47.599Z,487
2023-04-10T00:43:48.602Z,182
2023-04-10T00:44:49.604Z,96
2023-04-10T00:45:50.892Z,84
2023-04-10T00:46:51.613Z,86
2023-04-10T00:47:52.623Z,188
2023-04-10T00:48:53.599Z,114
2023-04-10T00:49:54.639Z,103
2023-04-10T00:50:55.562Z,140
2023-04-10T00:51:58.306Z,89
2023-04-10T00:52:57.666Z,89
2023-04-10T00:53:58.578Z,84
2023-04-10T00:54:59.739Z,83
2023-04-10T00:56:00.674Z,81
2023-04-10T00:57:01.627Z,166
2023-04-10T00:58:02.613Z,103
2023-04-10T00:59:05.226Z,84
2023-04-10T01:00:04.648Z,108
2023-04-10T01:01:05.647Z,82
2023-04-10T01:02:06.749Z,73
2023-04-10T01:03:07.777Z,259
2023-04-10T01:04:08.671Z,508
2023-04-10T01:05:09.632Z,610
2023-04-10T01:06:10.627Z,675
2023-04-10T01:07:11.641Z,635
2023-04-10T01:08:12.660Z,479
2023-04-10T01:09:13.620Z,110
2023-04-10T01:10:14.626Z,81
2023-04-10T01:11:15.605Z,73
2023-04-10T01:12:16.594Z,78
2023-04-10T01:13:17.637Z,114
2023-04-10T01:14:18.618Z,119
2023-04-10T01:15:19.623Z,270
2023-04-10T01:16:20.631Z,187
2023-04-10T01:17:22.031Z,100
2023-04-10T01:18:22.643Z,88
2023-04-10T01:19:23.581Z,122
2023-04-10T01:20:25.722Z,90
2023-04-10T01:21:26.663Z,95
2023-04-10T01:22:27.641Z,91
2023-04-10T01:23:28.638Z,122
2023-04-10T01:24:29.757Z,226
2023-04-10T01:25:30.922Z,218
2023-04-10T01:26:32.696Z,133
2023-04-10T01:27:33.678Z,124
2023-04-10T01:28:34.618Z,382
2023-04-10T01:29:35.638Z,226
2023-04-10T01:30:36.749Z,378
2023-04-10T01:31:37.729Z,306
2023-04-10T01:32:38.698Z,138
2023-04-10T01:33:39.671Z,96
2023-04-10T01:34:40.824Z,103
2023-04-10T01:35:41.926Z,99
2023-04-10T01:36:42.682Z,86
2023-04-10T01:37:43.637Z,88
2023-04-10T01:38:44.685Z,133
2023-04-10T01:39:45.658Z,128
2023-04-10T01:40:46.688Z,121
2023-04-10T01:41:47.718Z,110
2023-04-10T01:42:48.668Z,123
2023-04-10T01:43:49.630Z,169
2023-04-10T01:44:50.647Z,171
2023-04-10T01:45:51.752Z,200
2023-04-10T01:46:52.666Z,196
2023-04-10T01:47:53.660Z,140
2023-04-10T01:48:54.599Z,181
2023-04-10T01:49:55.746Z,195
2023-04-10T01:50:56.732Z,240
2023-04-10T01:51:57.661Z,101
2023-04-10T01:52:58.658Z,89
2023-04-10T01:53:59.703Z,89
2023-04-10T01:55:00.707Z,89
2023-04-10T01:56:01.723Z,93
2023-04-10T01:57:02.662Z,128
2023-04-10T01:58:03.720Z,89
2023-04-10T01:59:04.680Z,128
2023-04-10T02:00:05.748Z,282
2023-04-10T02:01:06.644Z,333
2023-04-10T02:02:07.912Z,356
2023-04-10T02:03:09.428Z,352
2023-04-10T02:04:10.784Z,328
2023-04-10T02:05:11.628Z,378
2023-04-10T02:06:12.636Z,267
2023-04-10T02:07:13.642Z,477
2023-04-10T02:08:14.693Z,490
2023-04-10T02:09:15.723Z,552
2023-04-10T02:10:19.741Z,482
2023-04-10T02:11:20.743Z,427
2023-04-10T02:12:21.793Z,519
2023-04-10T02:13:23.088Z,532
2023-04-10T02:14:24.822Z,394
2023-04-10T02:15:25.900Z,491
2023-04-10T02:16:27.858Z,286
2023-04-10T02:17:28.772Z,365
2023-04-10T02:18:29.861Z,231
2023-04-10T02:19:31.741Z,261
2023-04-10T02:20:32.781Z,111
2023-04-10T02:21:33.870Z,99
2023-04-10T02:22:34.759Z,107
2023-04-10T02:23:35.784Z,85
2023-04-10T02:24:36.745Z,122
2023-04-10T02:25:37.782Z,160
2023-04-10T02:26:38.806Z,222
2023-04-10T02:27:39.732Z,360
2023-04-10T02:28:40.783Z,278
2023-04-10T02:29:41.768Z,106
2023-04-10T02:30:42.762Z,84
2023-04-10T02:31:43.812Z,130
2023-04-10T02:32:44.766Z,125
2023-04-10T02:33:45.781Z,135
2023-04-10T02:34:46.758Z,108
2023-04-10T02:35:47.833Z,138
2023-04-10T02:36:48.790Z,92
2023-04-10T02:37:49.762Z,111
2023-04-10T02:38:50.759Z,90
2023-04-10T02:39:51.864Z,135
2023-04-10T02:40:52.795Z,222
2023-04-10T02:41:53.758Z,220
2023-04-10T02:42:54.802Z,155
2023-04-10T02:43:55.779Z,999
2023-04-10T02:44:56.774Z,191
2023-04-10T02:45:57.805Z,137
2023-04-10T02:46:58.917Z,84
2023-04-10T02:47:59.867Z,91
2023-04-10T02:49:00.892Z,220
2023-04-10T02:50:01.789Z,230
2023-04-10T02:51:02.745Z,238
2023-04-10T02:52:03.803Z,156
2023-04-10T02:53:04.800Z,193
2023-04-10T02:54:05.788Z,223
2023-04-10T02:55:06.788Z,244
2023-04-10T02:56:07.850Z,306
2023-04-10T02:57:08.758Z,258
2023-04-10T02:58:09.721Z,138
2023-04-10T02:59:10.728Z,107
2023-04-10T03:00:11.768Z,188
2023-04-10T03:01:12.864Z,155
2023-04-10T03:02:13.849Z,301
2023-04-10T03:03:15.069Z,282
2023-04-10T03:04:16.846Z,254
2023-04-10T03:05:17.775Z,127
2023-04-10T03:06:18.861Z,111
2023-04-10T03:07:19.752Z,91
2023-04-10T03:08:20.761Z,82
2023-04-10T03:09:21.757Z,80
2023-04-10T03:10:22.826Z,80
2023-04-10T03:11:24.432Z,78
2023-04-10T03:12:25.724Z,233
2023-04-10T03:13:26.800Z,276
2023-04-10T03:14:27.779Z,298
2023-04-10T03:15:28.803Z,355
2023-04-10T03:16:29.969Z,397
2023-04-10T03:17:31.907Z,412
2023-04-10T03:18:33.880Z,302
2023-04-10T03:19:34.798Z,344
2023-04-10T03:20:35.810Z,282
2023-04-10T03:21:36.823Z,279
2023-04-10T03:22:37.802Z,360
2023-04-10T03:23:38.746Z,392
2023-04-10T03:24:39.780Z,464
2023-04-10T03:25:40.826Z,464
2023-04-10T03:26:41.802Z,385
2023-04-10T03:27:42.819Z,383
2023-04-10T03:28:43.824Z,339
2023-04-10T03:29:44.872Z,330
2023-04-10T03:30:45.900Z,335
2023-04-10T03:31:47.968Z,147
2023-04-10T03:32:48.899Z,118
2023-04-10T03:33:49.838Z,163
2023-04-10T03:34:50.783Z,196
2023-04-10T03:35:51.924Z,269
2023-04-10T03:36:53.138Z,291
2023-04-10T03:37:54.941Z,166
2023-04-10T03:38:56.823Z,393
2023-04-10T03:39:57.928Z,474
2023-04-10T03:40:58.808Z,464
2023-04-10T03:41:59.779Z,498
2023-04-10T03:43:02.006Z,236
2023-04-10T03:44:03.878Z,161
2023-04-10T03:45:05.888Z,314
2023-04-10T03:46:06.830Z,496
2023-04-10T03:47:07.858Z,562
2023-04-10T03:48:09.147Z,437
2023-04-10T03:49:11.452Z,520
2023-04-10T03:50:12.781Z,470
2023-04-10T03:51:13.761Z,479
2023-04-10T03:52:14.919Z,293
2023-04-10T03:53:15.779Z,415
2023-04-10T03:54:16.809Z,452
2023-04-10T03:55:17.758Z,451
2023-04-10T03:56:18.842Z,167
2023-04-10T03:57:19.878Z,107
2023-04-10T03:58:20.989Z,155
2023-04-10T03:59:26.134Z,399
2023-04-10T04:00:22.764Z,563
2023-04-10T04:01:23.764Z,267
2023-04-10T04:02:24.959Z,105
2023-04-10T04:03:25.868Z,86
2023-04-10T04:04:26.829Z,86
2023-04-10T04:05:27.783Z,132
2023-04-10T04:06:28.879Z,269
2023-04-10T04:07:29.779Z,302
2023-04-10T04:08:30.698Z,196
2023-04-10T04:09:31.758Z,196
2023-04-10T04:10:32.738Z,212
2023-04-10T04:11:33.756Z,305
2023-04-10T04:12:34.737Z,254
2023-04-10T04:13:35.737Z,116
2023-04-10T04:14:36.748Z,88
2023-04-10T04:15:37.757Z,81
2023-04-10T04:16:38.836Z,128
2023-04-10T04:17:40.002Z,239
2023-04-10T04:18:41.060Z,180
2023-04-10T04:19:41.734Z,144
2023-04-10T04:20:42.684Z,181
2023-04-10T04:21:43.717Z,381
2023-04-10T04:22:44.760Z,317
2023-04-10T04:23:45.836Z,256
2023-04-10T04:24:46.697Z,185
2023-04-10T04:25:47.715Z,123
2023-04-10T04:26:48.761Z,166
2023-04-10T04:27:49.797Z,217
2023-04-10T04:28:50.738Z,163
2023-04-10T04:29:51.750Z,343
2023-04-10T04:30:52.754Z,507
2023-04-10T04:31:53.826Z,585
2023-04-10T04:32:54.879Z,656
2023-04-10T04:33:56.046Z,262
2023-04-10T04:34:56.759Z,170
2023-04-10T04:35:57.904Z,404
2023-04-10T04:36:58.926Z,504
2023-04-10T04:38:00.132Z,299
2023-04-10T04:39:01.861Z,379
2023-04-10T04:40:02.810Z,354
2023-04-10T04:41:03.766Z,367
2023-04-10T04:42:04.771Z,277
2023-04-10T04:43:05.867Z,303
2023-04-10T04:44:07.148Z,177
2023-04-10T04:45:09.584Z,152
2023-04-10T04:46:11.267Z,123
2023-04-10T04:47:13.000Z,124
2023-04-10T04:48:13.880Z,103
2023-04-10T04:49:15.020Z,99
2023-04-10T04:50:15.744Z,91
2023-04-10T04:51:16.706Z,112
2023-04-10T04:52:17.720Z,998
2023-04-10T04:53:18.801Z,99
2023-04-10T04:54:19.793Z,100
2023-04-10T04:55:20.759Z,108
2023-04-10T04:56:21.760Z,140
2023-04-10T04:57:23.028Z,107
2023-04-10T04:58:23.840Z,110
2023-04-10T04:59:24.726Z,303
2023-04-10T05:00:25.833Z,284
2023-04-10T05:01:27.839Z,358
2023-04-10T05:02:28.999Z,194
2023-04-10T05:03:30.018Z,112
2023-04-10T05:04:30.816Z,108
2023-04-10T05:05:32.658Z,258
2023-04-10T05:06:33.757Z,624
2023-04-10T05:07:34.758Z,847
2023-04-10T05:08:35.722Z,877
2023-04-10T05:09:36.761Z,861
2023-04-10T05:10:39.042Z,718
2023-04-10T05:11:39.786Z,201
2023-04-10T05:12:41.074Z,216
2023-04-10T05:13:42.056Z,317
2023-04-10T05:14:42.776Z,389
2023-04-10T05:15:43.885Z,338
2023-04-10T05:16:44.759Z,499
2023-04-10T05:18:46.836Z,658
2023-04-10T05:19:47.856Z,647
2023-04-10T05:20:48.795Z,717
2023-04-10T05:21:49.763Z,482
2023-04-10T05:22:50.795Z,558
2023-04-10T05:23:51.758Z,271
2023-04-10T05:24:52.736Z,207
2023-04-10T05:25:54.258Z,570
2023-04-10T05:26:55.854Z,578
2023-04-10T05:27:57.031Z,806
2023-04-10T05:28:57.790Z,878
2023-04-10T05:29:58.755Z,497
2023-04-10T05:30:59.807Z,606
2023-04-10T05:32:00.774Z,719
2023-04-10T05:33:01.923Z,506
2023-04-10T05:34:03.124Z,314
2023-04-10T05:35:03.802Z,278
2023-04-10T05:36:04.816Z,181
2023-04-10T05:37:05.837Z,213
2023-04-10T05:38:06.860Z,200
2023-04-10T05:39:07.776Z,500
2023-04-10T05:40:08.778Z,500
2023-04-10T05:41:09.739Z,333
2023-04-10T05:42:12.057Z,171
2023-04-10T05:43:12.849Z,475
2023-04-10T05:44:13.805Z,326
2023-04-10T05:45:14.783Z,149
2023-04-10T05:46:15.808Z,313
2023-04-10T05:47:16.943Z,345
2023-04-10T05:48:18.257Z,405
2023-04-10T05:49:19.861Z,355
2023-04-10T05:50:22.907Z,670
2023-04-10T05:51:21.798Z,719
2023-04-10T05:52:22.958Z,199
2023-04-10T05:53:23.859Z,166
2023-04-10T05:54:25.338Z,342
2023-04-10T05:55:26.939Z,378
2023-04-10T05:56:27.804Z,473
2023-04-10T05:57:28.878Z,534
2023-04-10T05:58:29.835Z,578
2023-04-10T05:59:30.762Z,587
2023-04-10T06:00:31.801Z,650
2023-04-10T06:01:32.781Z,643
2023-04-10T06:02:34.118Z,424
2023-04-10T06:03:35.055Z,321
2023-04-10T06:04:36.036Z,174
2023-04-10T06:05:36.807Z,123
2023-04-10T06:06:37.799Z,233
2023-04-10T06:07:38.929Z,513
2023-04-10T06:08:39.857Z,609
2023-04-10T06:09:40.817Z,580
2023-04-10T06:10:42.036Z,613
2023-04-10T06:11:43.275Z,563
2023-04-10T06:12:44.977Z,591
2023-04-10T06:13:45.875Z,273
2023-04-10T06:14:46.838Z,275
2023-04-10T06:15:47.898Z,170
2023-04-10T06:16:48.849Z,996
2023-04-10T06:17:49.848Z,256
2023-04-10T06:18:50.767Z,774
2023-04-10T06:19:52.383Z,523
2023-04-10T06:20:54.040Z,367
2023-04-10T06:21:55.190Z,441
2023-04-10T06:22:55.823Z,438
2023-04-10T06:23:56.939Z,525
2023-04-10T06:24:57.822Z,287
2023-04-10T06:25:58.963Z,550
2023-04-10T06:26:59.843Z,353
2023-04-10T06:28:00.821Z,445
2023-04-10T06:29:01.808Z,597
2023-04-10T06:30:03.016Z,416
2023-04-10T06:31:03.817Z,689
2023-04-10T06:32:04.847Z,315
2023-04-10T06:33:05.879Z,366
2023-04-10T06:34:06.765Z,374
2023-04-10T06:35:07.827Z,393
2023-04-10T06:36:08.833Z,260
2023-04-10T06:37:09.778Z,237
2023-04-10T06:38:10.769Z,246
2023-04-10T06:39:11.838Z,366
2023-04-10T06:40:13.138Z,283
2023-04-10T06:41:13.825Z,245
2023-04-10T06:42:15.198Z,324
2023-04-10T06:43:15.902Z,583
2023-04-10T06:44:16.845Z,540
2023-04-10T06:45:17.909Z,448
2023-04-10T06:46:18.844Z,455
2023-04-10T06:47:19.841Z,460
2023-04-10T06:48:21.201Z,617
2023-04-10T06:49:22.780Z,229
2023-04-10T06:50:23.888Z,221
2023-04-10T06:51:24.954Z,200
2023-04-10T06:52:25.791Z,138
2023-04-10T06:53:26.880Z,154
2023-04-10T06:54:27.820Z,200
2023-04-10T06:55:28.762Z,192
2023-04-10T06:56:29.763Z,258
2023-04-10T06:57:30.862Z,165
2023-04-10T06:58:32.097Z,188
2023-04-10T06:59:32.960Z,220
2023-04-10T07:00:33.853Z,271
2023-04-10T07:01:34.866Z,192
2023-04-10T07:02:36.138Z,281
2023-04-10T07:03:36.797Z,165
2023-04-10T07:04:37.810Z,183
2023-04-10T07:05:40.754Z,357
2023-04-10T07:06:40.679Z,316
2023-04-10T07:07:41.897Z,281
2023-04-10T07:08:42.838Z,171
2023-04-10T07:09:43.751Z,167
2023-04-10T07:10:45.552Z,253
2023-04-10T07:11:46.927Z,148
2023-04-10T07:12:47.860Z,195
2023-04-10T07:13:50.145Z,195
2023-04-10T07:14:52.145Z,352
2023-04-10T07:15:53.994Z,283
2023-04-10T07:16:54.947Z,383
2023-04-10T07:17:56.226Z,284
2023-04-10T07:18:57.887Z,293
2023-04-10T07:19:58.901Z,145
2023-04-10T07:20:59.923Z,153
2023-04-10T07:22:00.834Z,204
2023-04-10T07:23:01.901Z,173
2023-04-10T07:24:02.939Z,144
2023-04-10T07:25:03.894Z,191
2023-04-10T07:26:04.860Z,160
2023-04-10T07:27:05.896Z,281
2023-04-10T07:28:06.865Z,193
2023-04-10T07:29:08.095Z,166
2023-04-10T07:30:08.879Z,158
2023-04-10T07:31:09.868Z,151
2023-04-10T07:32:10.977Z,154
2023-04-10T07:33:12.020Z,173
2023-04-10T07:34:12.843Z,179
2023-04-10T07:35:13.832Z,150
2023-04-10T07:36:14.941Z,144
2023-04-10T07:37:15.829Z,141
2023-04-10T07:38:16.865Z,149
2023-04-10T07:39:17.901Z,155
2023-04-10T07:40:19.001Z,128
2023-04-10T07:41:19.902Z,126
2023-04-10T07:42:20.869Z,132
2023-04-10T07:43:21.939Z,119
2023-04-10T07:44:22.828Z,118
2023-04-10T07:45:24.427Z,117
2023-04-10T07:46:25.980Z,114
2023-04-10T07:47:26.916Z,113
2023-04-10T07:48:27.822Z,110
2023-04-10T07:49:28.800Z,107
2023-04-10T07:50:29.848Z,106
2023-04-10T07:51:30.820Z,107
2023-04-10T07:52:31.960Z,110
2023-04-10T07:53:33.207Z,110
2023-04-10T07:54:34.894Z,110
2023-04-10T07:55:35.920Z,110
2023-04-10T07:56:36.880Z,110
2023-04-10T07:57:37.867Z,110
2023-04-10T07:58:38.921Z,107
2023-04-10T07:59:39.991Z,105
2023-04-10T08:00:40.925Z,105
2023-04-10T08:01:41.948Z,105
2023-04-10T08:02:42.930Z,105
2023-04-10T08:03:44.064Z,105
2023-04-10T08:04:45.180Z,105
2023-04-10T08:05:46.848Z,103
2023-04-10T08:06:48.048Z,102
2023-04-10T08:07:48.907Z,102
2023-04-10T08:08:49.901Z,100
2023-04-10T08:09:50.937Z,97
2023-04-10T08:10:51.860Z,96
2023-04-10T08:11:52.921Z,93
2023-04-10T08:12:53.939Z,91
2023-04-10T08:13:54.926Z,90
2023-04-10T08:14:55.871Z,90
2023-04-10T08:15:56.906Z,91
2023-04-10T08:16:57.964Z,93
2023-04-10T08:17:59.006Z,91
2023-04-10T08:18:59.974Z,92
2023-04-10T08:20:00.884Z,89
2023-04-10T08:21:02.146Z,85
2023-04-10T08:22:02.915Z,84
2023-04-10T08:23:16.924Z,81
2023-04-10T08:24:05.769Z,81
2023-04-10T08:25:08.486Z,80
2023-04-10T08:26:09.938Z,80
2023-04-10T08:27:10.908Z,83
2023-04-10T08:28:11.879Z,81
2023-04-10T08:29:12.860Z,80
2023-04-10T08:30:13.960Z,79
2023-04-10T08:31:15.462Z,80
2023-04-10T08:32:17.779Z,79
2023-04-10T08:33:18.957Z,78
2023-04-10T08:34:19.896Z,77
2023-04-10T08:35:20.840Z,77
2023-04-10T08:36:21.896Z,80
2023-04-10T08:37:22.912Z,82
2023-04-10T08:38:24.199Z,81
2023-04-10T08:39:25.837Z,80
2023-04-10T08:40:26.869Z,82
2023-04-10T08:41:27.858Z,79
2023-04-10T08:42:28.900Z,79
2023-04-10T08:43:29.882Z,81
2023-04-10T08:44:30.885Z,81
2023-04-10T08:45:31.788Z,79
2023-04-10T08:46:32.946Z,80
2023-04-10T08:47:33.885Z,79
2023-04-10T08:48:35.007Z,80
2023-04-10T08:49:35.980Z,81
2023-04-10T08:50:36.958Z,79
2023-04-10T08:51:38.018Z,75
2023-04-10T08:52:39.010Z,74
2023-04-10T08:53:39.938Z,74
2023-04-10T08:54:41.361Z,74
2023-04-10T08:55:43.056Z,73
2023-04-10T08:56:43.918Z,73
2023-04-10T08:57:48.131Z,73
2023-04-10T08:58:46.008Z,72
2023-04-10T08:59:46.880Z,70
2023-04-10T09:00:47.867Z,69
2023-04-10T09:01:48.955Z,71
2023-04-10T09:02:50.001Z,71
2023-04-10T09:03:51.018Z,69
2023-04-10T09:04:52.065Z,67
2023-04-10T09:05:52.960Z,68
2023-04-10T09:06:53.916Z,66
2023-04-10T09:07:54.877Z,64
2023-04-10T09:08:55.914Z,67
2023-04-10T09:09:56.942Z,68
2023-04-10T09:10:57.921Z,68
2023-04-10T09:11:59.343Z,67
2023-04-10T09:13:01.122Z,67
2023-04-10T09:14:02.081Z,68
2023-04-10T09:15:02.878Z,66
2023-04-10T09:16:04.041Z,66
2023-04-10T09:17:05.255Z,66
2023-04-10T09:18:07.024Z,67
2023-04-10T09:19:08.076Z,66
2023-04-10T09:20:08.896Z,63
2023-04-10T09:21:09.884Z,63
2023-04-10T09:22:10.819Z,61
2023-04-10T09:23:11.957Z,61
2023-04-10T09:24:12.944Z,61
2023-04-10T09:25:13.875Z,62
2023-04-10T09:26:14.943Z,61
2023-04-10T09:27:15.936Z,62
2023-04-10T09:28:16.947Z,63
2023-04-10T09:29:18.014Z,63
2023-04-10T09:30:19.191Z,61
2023-04-10T09:31:19.989Z,61
2023-04-10T09:32:20.957Z,63
2023-04-10T09:33:22.180Z,62
2023-04-10T09:34:24.297Z,61
2023-04-10T09:35:25.851Z,61
2023-04-10T09:36:26.919Z,61
2023-04-10T09:37:27.938Z,60
2023-04-10T09:38:28.956Z,59
2023-04-10T09:39:29.887Z,60
2023-04-10T09:40:30.860Z,60
2023-04-10T09:41:31.892Z,58
2023-04-10T09:42:32.966Z,57
2023-04-10T09:43:33.954Z,57
2023-04-10T09:44:34.924Z,56
2023-04-10T09:45:35.933Z,57
2023-04-10T09:46:36.944Z,57
2023-04-10T09:47:38.121Z,57
2023-04-10T09:48:38.947Z,57
2023-04-10T09:49:39.835Z,57
2023-04-10T09:50:41.058Z,57
2023-04-10T09:51:41.976Z,60
2023-04-10T09:52:42.978Z,58
2023-04-10T09:53:43.975Z,59
2023-04-10T09:54:45.312Z,57
2023-04-10T09:55:46.940Z,57
2023-04-10T09:56:47.862Z,57
2023-04-10T09:57:48.939Z,58
2023-04-10T09:58:49.918Z,58
2023-04-10T09:59:50.915Z,58
2023-04-10T10:00:51.916Z,58
2023-04-10T10:01:53.041Z,59
2023-04-10T10:02:54.260Z,59
2023-04-10T10:03:55.898Z,58
2023-04-10T10:04:56.926Z,58
2023-04-10T10:05:57.937Z,56
2023-04-10T10:06:58.938Z,56
2023-04-10T10:08:00.107Z,55
2023-04-10T10:09:01.014Z,56
2023-04-10T10:10:01.995Z,58
2023-04-10T10:11:02.953Z,58
2023-04-10T10:12:03.980Z,58
2023-04-10T10:13:05.010Z,57
2023-04-10T10:14:05.918Z,56
2023-04-10T10:15:06.970Z,58
2023-04-10T10:16:07.957Z,58
2023-04-10T10:17:08.938Z,56
2023-04-10T10:18:10.010Z,53
2023-04-10T10:19:10.878Z,53
2023-04-10T10:20:11.915Z,53
2023-04-10T10:21:12.871Z,52
2023-04-10T10:22:13.861Z,52
2023-04-10T10:23:15.259Z,54
2023-04-10T10:24:15.947Z,56
2023-04-10T10:25:16.903Z,56
2023-04-10T10:26:17.964Z,55
2023-04-10T10:27:19.002Z,53
2023-04-10T10:28:19.934Z,53
2023-04-10T10:29:20.956Z,53
2023-04-10T10:30:29.190Z,53
2023-04-10T10:31:22.910Z,52
2023-04-10T10:32:24.361Z,52
2023-04-10T10:33:26.026Z,52
2023-04-10T10:34:27.089Z,48
2023-04-10T10:35:29.460Z,46
2023-04-10T10:36:29.019Z,44
2023-04-10T10:37:29.964Z,45
2023-04-10T10:38:30.872Z,46
2023-04-10T10:39:32.001Z,45
2023-04-10T10:40:32.960Z,46
2023-04-10T10:41:33.906Z,46
2023-04-10T10:42:34.940Z,46
2023-04-10T10:43:36.270Z,48
2023-04-10T10:44:38.129Z,48
2023-04-10T10:45:39.034Z,50
2023-04-10T10:46:39.895Z,50
2023-04-10T10:47:41.396Z,52
2023-04-10T10:48:42.027Z,49
2023-04-10T10:49:43.028Z,48
2023-04-10T10:50:43.919Z,47
2023-04-10T10:51:44.939Z,48
2023-04-10T10:52:45.854Z,48
2023-04-10T10:53:46.942Z,48
2023-04-10T10:54:59.035Z,47
2023-04-10T10:55:48.981Z,46
2023-04-10T10:56:50.330Z,46
2023-04-10T10:57:50.941Z,46
2023-04-10T10:58:52.589Z,44
2023-04-10T10:59:53.342Z,46
2023-04-10T11:00:55.099Z,45
2023-04-10T11:01:57.231Z,46
2023-04-10T11:02:58.189Z,46
2023-04-10T11:03:59.282Z,47
2023-04-10T11:04:59.969Z,47
2023-04-10T11:06:00.966Z,46
2023-04-10T11:07:01.961Z,47
2023-04-10T11:08:02.923Z,45
2023-04-10T11:09:04.015Z,47
2023-04-10T11:10:04.990Z,47
2023-04-10T11:11:06.073Z,47
2023-04-10T11:12:07.118Z,48
2023-04-10T11:13:08.020Z,48
2023-04-10T11:14:09.276Z,44
2023-04-10T11:15:10.065Z,47
2023-04-10T11:16:11.420Z,49
2023-04-10T11:17:13.122Z,48
2023-04-10T11:18:14.028Z,48
2023-04-10T11:19:16.335Z,46
2023-04-10T11:20:15.943Z,45
2023-04-10T11:21:17.472Z,44
2023-04-10T11:22:19.256Z,44
2023-04-10T11:23:19.990Z,44
2023-04-10T11:24:21.043Z,44
2023-04-10T11:25:22.066Z,42
2023-04-10T11:26:22.946Z,41
2023-04-10T11:27:24.008Z,42
2023-04-10T11:28:24.889Z,42
2023-04-10T11:29:25.900Z,41
2023-04-10T11:30:27.026Z,44
2023-04-10T11:31:28.034Z,45
2023-04-10T11:32:29.128Z,44
2023-04-10T11:33:30.105Z,44
2023-04-10T11:34:31.237Z,45
2023-04-10T11:35:32.105Z,45
2023-04-10T11:36:33.195Z,46
2023-04-10T11:37:33.976Z,46
2023-04-10T11:38:35.107Z,46
2023-04-10T11:39:36.116Z,46
2023-04-10T11:40:37.207Z,47
2023-04-10T11:41:39.589Z,46
2023-04-10T11:42:41.037Z,45
2023-04-10T11:43:41.987Z,45
2023-04-10T11:44:43.020Z,44
2023-04-10T11:45:43.960Z,42
2023-04-10T11:46:45.017Z,44
2023-04-10T11:47:46.045Z,45
2023-04-10T11:48:47.098Z,45
2023-04-10T11:49:48.114Z,45
2023-04-10T11:50:49.097Z,47
2023-04-10T11:51:49.984Z,46
2023-04-10T11:52:51.824Z,47
2023-04-10T11:53:53.096Z,49
2023-04-10T11:54:54.017Z,49
2023-04-10T11:55:55.085Z,50
2023-04-10T11:56:55.979Z,49
2023-04-10T11:57:57.076Z,49
2023-04-10T11:58:58.007Z,49
2023-04-10T11:59:58.979Z,49
2023-04-10T12:00:59.981Z,48
2023-04-10T12:02:00.976Z,48
2023-04-10T12:03:02.365Z,49
2023-04-10T12:04:03.112Z,48
2023-04-10T12:05:04.009Z,47
2023-04-10T12:06:04.972Z,47
2023-04-10T12:07:06.272Z,48
2023-04-10T12:08:07.944Z,48
2023-04-10T12:09:09.013Z,49
2023-04-10T12:10:10.094Z,47
2023-04-10T12:11:11.013Z,46
2023-04-10T12:12:12.024Z,46
2023-04-10T12:13:13.055Z,46
2023-04-10T12:14:13.997Z,47
2023-04-10T12:15:14.974Z,46
2023-04-10T12:16:16.158Z,46
2023-04-10T12:17:17.055Z,46
2023-04-10T12:18:18.014Z,46
2023-04-10T12:19:19.176Z,45
2023-04-10T12:20:20.011Z,46
2023-04-10T12:21:21.036Z,46
2023-04-10T12:22:22.074Z,45
2023-04-10T12:23:23.058Z,46
2023-04-10T12:24:24.234Z,46
2023-04-10T12:25:25.034Z,46
2023-04-10T12:26:25.933Z,47
2023-04-10T12:27:27.021Z,47
2023-04-10T12:28:27.975Z,47
2023-04-10T12:29:29.078Z,47
2023-04-10T12:30:29.939Z,49
2023-04-10T12:31:31.016Z,48
2023-04-10T12:32:32.030Z,49
2023-04-10T12:33:33.099Z,49
2023-04-10T12:34:34.038Z,49
2023-04-10T12:35:35.044Z,50
2023-04-10T12:36:36.061Z,49
2023-04-10T12:37:37.042Z,47
2023-04-10T12:38:38.160Z,48
2023-04-10T12:39:39.436Z,50
2023-04-10T12:40:41.280Z,48
2023-04-10T12:41:42.021Z,48
2023-04-10T12:42:43.001Z,48
2023-04-10T12:43:44.022Z,47
2023-04-10T12:44:44.982Z,47
2023-04-10T12:45:45.951Z,47
2023-04-10T12:46:46.943Z,46
2023-04-10T12:47:48.145Z,44
2023-04-10T12:48:49.283Z,47
2023-04-10T12:49:50.126Z,46
2023-04-10T12:50:50.984Z,45
2023-04-10T12:51:52.103Z,45
2023-04-10T12:52:53.020Z,44
2023-04-10T12:53:54.044Z,45
2023-04-10T12:54:55.263Z,46
2023-04-10T12:55:56.253Z,46
2023-04-10T12:56:57.002Z,45
2023-04-10T12:57:58.081Z,45
2023-04-10T12:58:59.103Z,46
2023-04-10T12:59:59.999Z,45
2023-04-10T13:01:01.582Z,45
2023-04-10T13:02:03.428Z,45
2023-04-10T13:03:04.308Z,46
2023-04-10T13:04:05.275Z,48
2023-04-10T13:05:06.203Z,47
2023-04-10T13:06:07.123Z,46
2023-04-10T13:07:08.340Z,46
2023-04-10T13:08:10.028Z,45
2023-04-10T13:09:10.999Z,44
2023-04-10T13:10:12.067Z,44
2023-04-10T13:11:13.098Z,45
2023-04-10T13:12:14.028Z,45
2023-04-10T13:13:15.007Z,45
2023-04-10T13:14:16.039Z,44
2023-04-10T13:15:17.265Z,45
2023-04-10T13:16:18.299Z,45
2023-04-10T13:17:19.142Z,45
2023-04-10T13:18:20.016Z,45
2023-04-10T13:19:21.201Z,45
2023-04-10T13:20:22.067Z,45
2023-04-10T13:21:23.004Z,44
2023-04-10T13:22:24.159Z,44
2023-04-10T13:23:25.020Z,42
2023-04-10T13:24:26.000Z,41
2023-04-10T13:25:27.295Z,41
2023-04-10T13:26:28.120Z,43
2023-04-10T13:27:29.099Z,42
2023-04-10T13:28:30.256Z,42
2023-04-10T13:29:31.039Z,42
2023-04-10T13:30:32.056Z,42
2023-04-10T13:31:33.113Z,44
2023-04-10T13:32:34.157Z,42
2023-04-10T13:33:35.020Z,41
2023-04-10T13:34:36.074Z,41
2023-04-10T13:35:37.116Z,41
2023-04-10T13:36:38.214Z,41
2023-04-10T13:37:39.207Z,40
2023-04-10T13:38:40.117Z,39
2023-04-10T13:39:41.079Z,39
2023-04-10T13:40:42.519Z,38
2023-04-10T13:41:44.118Z,38
2023-04-10T13:42:45.290Z,37
2023-04-10T13:43:47.103Z,38
2023-04-10T13:44:48.040Z,38
2023-04-10T13:45:49.107Z,39
2023-04-10T13:46:50.059Z,39
2023-04-10T13:47:51.053Z,38
2023-04-10T13:48:52.316Z,38
2023-04-10T13:49:54.991Z,37
2023-04-10T13:50:56.180Z,37
2023-04-10T13:51:57.132Z,36
2023-04-10T13:52:58.026Z,37
2023-04-10T13:53:59.135Z,37
2023-04-10T13:55:00.098Z,38
2023-04-10T13:56:01.105Z,37
2023-04-10T13:57:02.035Z,37
2023-04-10T13:58:03.063Z,37
2023-04-10T13:59:04.067Z,38
2023-04-10T14:00:05.148Z,38
2023-04-10T14:01:06.184Z,38
2023-04-10T14:02:08.304Z,38
2023-04-10T14:03:09.242Z,38
2023-04-10T14:04:10.421Z,38
2023-04-10T14:05:12.105Z,37
2023-04-10T14:06:13.169Z,36
2023-04-10T14:07:14.105Z,36
2023-04-10T14:08:15.086Z,36
2023-04-10T14:09:16.042Z,38
2023-04-10T14:10:17.041Z,36
2023-04-10T14:11:18.567Z,36
2023-04-10T14:12:20.181Z,36
2023-04-10T14:13:21.052Z,37
2023-04-10T14:14:22.781Z,37
2023-04-10T14:15:24.124Z,37
2023-04-10T14:16:25.220Z,37
2023-04-10T14:17:26.051Z,36